Time;durP1;ratioP1;P1;durP2;ratioP2;P2;SDS_P1;SDS_P2;PMS_P1;PMS_P2;Temp;Humidity;BMP_temperature;BMP_pressure;BME280_temperature;BME280_humidity;BME280_pressure;Samples;Min_cycle;Max_cycle;Signal;HPM_P1;HPM_P2
2024/04/03 00:00:16;;;;;;;0.60;0.60;;;;;;;12.58;41.29;99737.38;123415;1099;104280;-73
2024/04/03 00:03:08;;;;;;;0.50;0.50;;;;;;;12.58;41.17;99732.11;123186;1099;104264;-73
2024/04/03 00:05:39;;;;;;;0.67;0.57;;;;;;;12.58;41.40;99747.03;123219;1099;104620;-74
2024/04/03 00:08:11;;;;;;;0.80;0.60;;;;;;;12.57;41.20;99748.79;123097;1098;104371;-74
2024/04/03 00:10:42;;;;;;;2.90;0.63;;;;;;;12.56;41.45;99749.64;123122;1099;104401;-73
2024/04/03 00:13:13;;;;;;;0.90;0.60;;;;;;;12.55;41.63;99741.72;123197;1099;104351;-73
2024/04/03 00:15:45;;;;;;;0.70;0.50;;;;;;;12.52;41.30;99747.81;123420;1099;104354;-74
2024/04/03 00:18:16;;;;;;;1.07;0.57;;;;;;;12.50;41.42;99748.67;123430;1099;104267;-73
2024/04/03 00:20:47;;;;;;;0.60;0.57;;;;;;;12.47;41.49;99749.50;123489;1099;104433;-74
2024/04/03 00:23:19;;;;;;;0.60;0.60;;;;;;;12.44;41.46;99748.57;123092;1099;104343;-73
2024/04/03 00:26:01;;;;;;;1.30;0.40;;;;;;;12.41;41.81;99752.03;123166;1099;104251;-74
2024/04/03 00:28:33;;;;;;;0.83;0.60;;;;;;;12.37;41.74;99753.73;123102;1099;104239;-73
2024/04/03 00:31:04;;;;;;;0.60;0.50;;;;;;;12.33;41.79;99759.79;123184;1099;104252;-73
2024/04/03 00:33:36;;;;;;;0.77;0.63;;;;;;;12.29;41.72;99759.71;123135;1099;104332;-73
2024/04/03 00:36:08;;;;;;;0.70;0.70;;;;;;;12.28;41.90;99760.56;123118;1099;104386;-74
2024/04/03 00:38:39;;;;;;;0.63;0.60;;;;;;;12.23;41.70;99764.02;123180;1099;104337;-74
2024/04/03 00:41:10;;;;;;;1.35;0.80;;;;;;;12.21;42.06;99763.09;123142;1099;104261;-74
2024/04/03 00:43:42;;;;;;;0.70;0.70;;;;;;;12.22;42.01;99766.63;123198;1099;104306;-73
2024/04/03 00:46:14;;;;;;;0.60;0.53;;;;;;;12.18;41.78;99768.29;123143;1099;104730;-74
2024/04/03 00:48:46;;;;;;;6.33;1.00;;;;;;;12.15;42.06;99760.34;123146;1099;104437;-73
2024/04/03 00:51:18;;;;;;;2.87;0.60;;;;;;;12.17;41.90;99768.27;123158;1099;104350;-74
2024/04/03 00:53:49;;;;;;;0.73;0.50;;;;;;;12.14;41.92;99762.95;123212;1099;104211;-74
2024/04/03 00:56:24;;;;;;;0.60;0.60;;;;;;;12.13;42.16;99759.45;123150;1099;104297;-73
2024/04/03 00:58:55;;;;;;;1.17;0.60;;;;;;;12.10;42.24;99764.65;123220;1099;104293;-73
2024/04/03 01:01:27;;;;;;;0.57;0.57;;;;;;;12.08;42.18;99763.75;123135;1099;104441;-73
2024/04/03 01:03:58;;;;;;;0.60;0.60;;;;;;;12.08;42.25;99765.50;123089;1099;104351;-74
2024/04/03 01:06:30;;;;;;;0.50;0.50;;;;;;;12.06;42.48;99765.48;123141;1099;104290;-73
2024/04/03 01:09:01;;;;;;;2.73;0.80;;;;;;;12.04;42.33;99769.80;123128;1099;104248;-73
2024/04/03 01:11:33;;;;;;;1.03;0.60;;;;;;;11.99;42.53;99764.45;123210;1099;104373;-73
2024/04/03 01:14:04;;;;;;;1.80;0.80;;;;;;;11.99;42.30;99768.84;123077;1099;104326;-74
2024/04/03 01:16:40;;;;;;;0.70;0.50;;;;;;;11.98;42.39;99774.95;123131;1099;104271;-74
2024/04/03 01:19:11;;;;;;;0.90;0.53;;;;;;;11.96;42.72;99784.56;123180;1099;104341;-73
2024/04/03 01:21:43;;;;;;;4.13;0.67;;;;;;;11.97;42.39;99784.59;123167;1099;104398;-73
2024/04/03 01:24:20;;;;;;;1.57;0.70;;;;;;;11.98;42.43;99782.83;123207;1099;104283;-74
2024/04/03 01:26:51;;;;;;;1.93;0.70;;;;;;;11.98;42.68;99789.00;123141;1099;104352;-74
2024/04/03 01:29:23;;;;;;;0.83;0.73;;;;;;;11.99;42.70;99790.75;123249;1099;104249;-74
2024/04/03 01:31:54;;;;;;;0.90;0.90;;;;;;;11.99;42.64;99781.98;123218;1099;104267;-74
2024/04/03 01:34:26;;;;;;;0.97;0.50;;;;;;;11.98;42.50;99781.11;123180;1099;105667;-73
2024/04/03 01:36:58;;;;;;;1.60;0.50;;;;;;;11.96;42.63;99784.56;123171;1099;104248;-73
2024/04/03 01:39:32;;;;;;;0.60;0.60;;;;;;;11.93;42.85;99795.02;123092;1099;104428;-73
2024/04/03 01:42:04;;;;;;;0.60;0.60;;;;;;;11.93;42.69;99790.63;123221;1099;104313;-73
2024/04/03 01:44:35;;;;;;;1.00;0.67;;;;;;;11.95;43.11;99793.30;123132;1099;104344;-73
2024/04/03 01:47:07;;;;;;;0.67;0.60;;;;;;;11.96;42.87;99798.58;123117;1099;104271;-73
2024/04/03 01:49:38;;;;;;;0.63;0.60;;;;;;;11.97;42.78;99805.63;123148;1099;104281;-73
2024/04/03 01:52:09;;;;;;;0.83;0.83;;;;;;;11.97;43.04;99810.87;123082;1099;104316;-73
2024/04/03 01:54:41;;;;;;;0.83;0.77;;;;;;;12.00;43.12;99820.58;123145;1099;104265;-73
2024/04/03 01:57:13;;;;;;;1.67;0.77;;;;;;;12.03;42.98;99825.90;123439;1099;104219;-74
2024/04/03 01:59:44;;;;;;;1.45;0.70;;;;;;;12.03;43.19;99825.90;123480;1099;104277;-74
2024/04/03 02:02:16;;;;;;;1.40;0.90;;;;;;;12.03;43.05;99818.02;123316;1099;104329;-74
2024/04/03 02:04:47;;;;;;;0.87;0.80;;;;;;;12.02;43.33;99821.48;123148;1099;105610;-75
2024/04/03 02:07:18;;;;;;;1.33;0.90;;;;;;;11.98;43.20;99820.55;123248;1099;104242;-73
2024/04/03 02:09:50;;;;;;;0.87;0.77;;;;;;;11.95;43.19;99824.84;123183;1099;104184;-74
2024/04/03 02:12:21;;;;;;;1.30;0.75;;;;;;;11.93;43.28;99827.44;123223;1099;104288;-74
2024/04/03 02:14:53;;;;;;;1.13;0.70;;;;;;;11.86;43.30;99831.67;123270;1099;104341;-73
2024/04/03 02:17:24;;;;;;;0.90;0.70;;;;;;;11.85;43.59;99829.88;123175;1099;104428;-74
2024/04/03 02:19:55;;;;;;;1.00;0.70;;;;;;;11.84;43.51;99836.02;123419;1098;104270;-74
2024/04/03 02:22:26;;;;;;;0.80;0.80;;;;;;;11.85;43.27;99837.77;123414;1099;104271;-74
2024/04/03 02:24:58;;;;;;;0.77;0.60;;;;;;;11.86;43.69;99833.42;123144;1099;105669;-74
2024/04/03 02:27:29;;;;;;;0.63;0.63;;;;;;;11.82;43.36;99831.58;123240;1099;104268;-75
2024/04/03 02:30:01;;;;;;;1.80;0.83;;;;;;;11.81;43.56;99840.31;123304;1099;104786;-75
2024/04/03 02:32:32;;;;;;;0.50;0.50;;;;;;;11.79;43.44;99835.02;123327;1099;104277;-75
2024/04/03 02:35:03;;;;;;;0.67;0.60;;;;;;;11.77;43.40;99834.11;123357;1099;104299;-74
2024/04/03 02:37:37;;;;;;;1.13;0.80;;;;;;;11.75;43.83;99830.58;123259;1099;104242;-74
2024/04/03 02:40:09;;;;;;;0.60;0.60;;;;;;;11.74;43.53;99833.17;123201;1099;104316;-74
2024/04/03 02:42:41;;;;;;;1.60;0.83;;;;;;;11.74;43.82;99830.55;123139;1099;104252;-75
2024/04/03 02:45:13;;;;;;;0.63;0.63;;;;;;;11.72;43.69;99830.52;123345;1099;104344;-74
2024/04/03 02:47:44;;;;;;;0.67;0.53;;;;;;;11.73;43.61;99827.01;123184;1099;104375;-74
2024/04/03 02:50:17;;;;;;;1.33;0.80;;;;;;;11.74;43.68;99834.05;123077;1099;104245;-74
2024/04/03 02:52:48;;;;;;;2.10;0.80;;;;;;;11.73;43.51;99832.27;123086;1099;104293;-74
2024/04/03 02:55:20;;;;;;;1.27;0.93;;;;;;;11.73;43.99;99834.89;123054;1099;104266;-75
2024/04/03 02:57:51;;;;;;;0.50;0.50;;;;;;;11.71;43.87;99836.62;123033;1099;104275;-74
2024/04/03 03:00:23;;;;;;;0.93;0.80;;;;;;;11.72;43.71;99842.75;123167;1099;104271;-75
2024/04/03 03:02:55;;;;;;;1.23;0.60;;;;;;;11.71;44.04;99847.13;123144;1099;104348;-74
2024/04/03 03:05:26;;;;;;;4.40;1.40;;;;;;;11.69;44.05;99849.72;123245;1099;104319;-74
2024/04/03 03:07:58;;;;;;;3.97;0.80;;;;;;;11.68;44.08;99860.20;123235;1099;104389;-73
2024/04/03 03:10:29;;;;;;;5.03;0.90;;;;;;;11.64;44.18;99869.78;123229;1099;104342;-74
2024/04/03 03:13:00;;;;;;;0.70;0.70;;;;;;;11.62;43.93;99868.83;123124;1099;104245;-74
2024/04/03 03:15:32;;;;;;;0.87;0.60;;;;;;;11.61;44.26;99876.69;123129;1099;104329;-74
2024/04/03 03:18:04;;;;;;;2.70;0.80;;;;;;;11.59;43.97;99873.14;123111;1099;104281;-74
2024/04/03 03:20:36;;;;;;;1.63;0.70;;;;;;;11.56;44.32;99868.73;123250;1099;104345;-75
2024/04/03 03:23:07;;;;;;;10.40;1.30;;;;;;;11.52;44.38;99866.88;123249;1099;104821;-73
2024/04/03 03:25:38;;;;;;;6.73;1.70;;;;;;;11.49;44.37;99877.33;123140;1099;104271;-73
2024/04/03 03:28:10;;;;;;;0.83;0.80;;;;;;;11.45;44.30;99870.22;123319;1099;104268;-73
2024/04/03 03:30:41;;;;;;;1.50;0.67;;;;;;;11.44;44.71;99871.09;123180;1102;104460;-74
2024/04/03 03:33:13;;;;;;;0.67;0.67;;;;;;;11.42;44.23;99875.41;123141;1100;104242;-74
2024/04/03 03:35:49;;;;;;;0.70;0.70;;;;;;;11.41;44.51;99879.78;123214;1102;104350;-73
2024/04/03 03:38:21;;;;;;;2.20;0.80;;;;;;;11.41;44.53;99877.16;123213;1099;104344;-75
2024/04/03 03:40:53;;;;;;;4.10;1.27;;;;;;;11.42;44.54;99880.66;123184;1099;104341;-75
2024/04/03 03:43:24;;;;;;;1.85;0.95;;;;;;;11.41;44.35;99892.91;123219;1099;104274;-74
2024/04/03 03:45:55;;;;;;;13.57;1.80;;;;;;;11.39;44.59;99902.52;123111;1099;104363;-75
2024/04/03 03:54:04;;;;;;;5.80;1.03;;;;;;;11.36;44.64;99897.19;123214;1099;104379;-73
2024/04/03 03:56:35;;;;;;;1.40;1.00;;;;;;;11.36;44.90;99906.78;123210;1102;104367;-75
2024/04/03 03:59:07;;;;;;;2.60;1.13;;;;;;;11.33;44.93;99905.00;123160;1101;104325;-73
2024/04/03 04:01:38;;;;;;;5.83;1.60;;;;;;;11.35;44.92;99905.91;123183;1099;104315;-74
2024/04/03 04:04:09;;;;;;;10.53;2.53;;;;;;;11.35;44.95;99907.66;123238;1099;104360;-74
2024/04/03 04:06:41;;;;;;;4.67;1.63;;;;;;;11.35;45.04;99913.79;123350;1099;104242;-74
2024/04/03 04:09:13;;;;;;;8.97;2.10;;;;;;;11.38;44.99;99911.23;123250;1099;104357;-74
2024/04/03 04:11:47;;;;;;;5.55;1.70;;;;;;;11.41;44.85;99924.44;123272;1098;104395;-74
2024/04/03 04:14:18;;;;;;;4.55;1.70;;;;;;;11.43;45.11;99921.84;123252;1099;104261;-74
2024/04/03 04:16:50;;;;;;;19.37;2.90;;;;;;;11.45;45.08;99922.76;123210;1098;104294;-74
2024/04/03 04:19:21;;;;;;;28.23;3.40;;;;;;;11.47;45.45;99919.33;123183;1099;104360;-74
2024/04/03 04:21:52;;;;;;;16.77;2.83;;;;;;;11.52;45.37;99919.44;123191;1099;104357;-73
2024/04/03 04:24:24;;;;;;;7.37;1.80;;;;;;;11.56;45.24;99920.38;123367;1099;104383;-73
2024/04/03 04:27:00;;;;;;;6.80;1.73;;;;;;;11.58;45.11;99937.09;123315;1099;104341;-73
2024/04/03 04:29:32;;;;;;;2.17;1.50;;;;;;;11.62;45.63;99931.91;123394;1099;104304;-73
2024/04/03 04:32:03;;;;;;;2.90;1.30;;;;;;;11.68;45.07;99937.30;123193;1099;104297;-74
2024/04/03 04:34:34;;;;;;;3.93;1.30;;;;;;;11.73;45.22;99937.40;123189;1099;104319;-74
2024/04/03 04:37:06;;;;;;;2.30;1.47;;;;;;;11.78;45.39;99935.78;123358;1099;104348;-73
2024/04/03 04:39:38;;;;;;;3.00;1.40;;;;;;;11.83;45.36;99939.38;123367;1099;104325;-74
2024/04/03 04:42:10;;;;;;;5.30;1.13;;;;;;;11.89;45.23;99938.64;123492;1099;104255;-74
2024/04/03 04:44:42;;;;;;;2.17;1.37;;;;;;;11.88;45.43;99936.86;123409;1099;104325;-73
2024/04/03 04:47:13;;;;;;;4.97;1.40;;;;;;;11.91;45.48;99944.81;123318;1099;104271;-73
2024/04/03 04:49:45;;;;;;;1.75;1.20;;;;;;;11.98;45.51;99940.59;123546;1099;104820;-72
2024/04/03 04:52:16;;;;;;;4.30;1.27;;;;;;;12.05;45.46;99943.38;123373;1099;104648;-73
2024/04/03 04:54:48;;;;;;;3.00;1.37;;;;;;;12.12;45.17;99931.23;123320;1099;104299;-73
2024/04/03 04:57:19;;;;;;;3.63;1.40;;;;;;;12.18;45.47;99933.99;123431;1099;104252;-73
2024/04/03 04:59:51;;;;;;;5.80;1.30;;;;;;;12.26;45.48;99933.27;123272;1099;104240;-73
2024/04/03 05:02:23;;;;;;;5.63;1.40;;;;;;;12.36;45.63;99940.50;123291;1099;104312;-73
2024/04/03 05:04:55;;;;;;;9.70;2.90;;;;;;;12.44;45.60;99933.63;123457;1099;104274;-73
2024/04/03 05:07:26;;;;;;;5.10;1.93;;;;;;;12.51;45.59;99938.16;123510;1099;104190;-74
2024/04/03 05:09:57;;;;;;;3.27;1.40;;;;;;;12.58;45.58;99940.03;123580;1099;104268;-73
2024/04/03 05:12:29;;;;;;;5.27;1.57;;;;;;;12.66;45.71;99944.56;123793;1099;104297;-73
2024/04/03 05:15:00;;;;;;;5.43;1.57;;;;;;;12.75;45.26;99942.09;124098;1099;104268;-73
2024/04/03 05:17:32;;;;;;;3.90;1.30;;;;;;;12.84;45.60;99942.27;123902;1098;104226;-73
2024/04/03 05:20:04;;;;;;;3.30;1.20;;;;;;;12.93;45.38;99939.79;123457;1099;111536;-73
2024/04/03 05:22:35;;;;;;;1.13;0.90;;;;;;;13.03;45.17;99937.31;123557;1099;104344;-74
2024/04/03 05:25:12;;;;;;;4.20;1.50;;;;;;;13.12;45.35;99935.70;123540;1099;104348;-74
2024/04/03 05:27:45;;;;;;;1.70;0.97;;;;;;;13.22;45.85;99936.73;124502;1098;104395;-73
2024/04/03 05:30:19;;;;;;;8.00;1.40;;;;;;;13.31;45.60;99939.52;123755;1099;104219;-72
2024/04/03 05:32:51;;;;;;;2.60;1.10;;;;;;;13.42;45.64;99929.17;124049;1098;104249;-74
2024/04/03 05:35:25;;;;;;;2.10;0.80;;;;;;;13.51;45.13;99938.98;123675;1099;104708;-74
2024/04/03 05:37:59;;;;;;;3.70;0.90;;;;;;;13.60;45.35;99931.20;123674;1099;104456;-75
2024/04/03 05:40:34;;;;;;;1.53;1.00;;;;;;;13.71;45.70;99930.45;124045;1099;108820;-75
2024/04/03 05:43:05;;;;;;;4.10;1.20;;;;;;;13.81;45.42;99942.91;123564;1099;104277;-73
2024/04/03 05:45:38;;;;;;;3.00;1.30;;;;;;;13.89;45.58;99929.83;123878;1099;104770;-73
2024/04/03 05:48:10;;;;;;;1.00;0.90;;;;;;;13.97;45.22;99931.67;124232;1098;104239;-76
2024/04/03 05:50:47;;;;;;;3.83;1.57;;;;;;;14.08;45.49;99936.22;123697;1099;117821;-74
2024/04/03 05:53:18;;;;;;;3.67;1.30;;;;;;;14.17;45.42;99942.48;123917;1099;103171;-75
2024/04/03 05:55:56;;;;;;;7.60;1.20;;;;;;;14.28;45.68;99939.97;123936;1099;104284;-76
2024/04/03 05:58:29;;;;;;;1.67;1.03;;;;;;;14.43;45.52;99938.36;124036;1099;104251;-74
2024/04/03 06:01:01;;;;;;;7.07;1.50;;;;;;;14.54;44.58;99947.31;124303;1099;104676;-73
2024/04/03 06:03:34;;;;;;;2.17;1.13;;;;;;;14.62;44.93;99950.94;123976;1099;104249;-76
2024/04/03 06:06:06;;;;;;;3.73;1.13;;;;;;;14.70;44.82;99959.81;124175;1099;104714;-74
2024/04/03 06:08:39;;;;;;;3.73;1.70;;;;;;;14.79;44.84;99948.47;124054;1099;104348;-75
2024/04/03 06:11:11;;;;;;;6.57;1.57;;;;;;;14.92;44.27;99952.11;124174;1099;104200;-73
2024/04/03 06:13:43;;;;;;;1.70;1.40;;;;;;;15.06;45.31;99947.83;124063;1102;104230;-72
2024/04/03 06:16:22;;;;;;;4.43;1.33;;;;;;;15.18;45.16;99954.98;124142;1099;104428;-73
2024/04/03 06:19:03;;;;;;;4.40;1.70;;;;;;;15.31;44.97;99950.67;124065;1099;104371;-76
2024/04/03 06:21:37;;;;;;;1.87;1.20;;;;;;;15.45;44.93;99945.48;125024;1099;104239;-76
2024/04/03 06:24:09;;;;;;;;;;;;;;;15.54;44.52;99942.91;124449;1099;104249;-74
2024/04/03 06:26:53;;;;;;;6.40;1.60;;;;;;;15.65;43.91;99950.91;124376;1099;104242;-76
2024/04/03 06:29:48;;;;;;;4.80;1.15;;;;;;;15.75;44.50;99950.10;124785;1099;104350;-78
2024/04/03 06:32:19;;;;;;;4.37;1.13;;;;;;;15.87;43.69;99948.42;124078;1099;104319;-76
2024/04/03 06:34:52;;;;;;;8.07;1.50;;;;;;;15.93;43.49;99949.33;124155;1099;104222;-73
2024/04/03 06:37:23;;;;;;;2.57;0.93;;;;;;;16.03;43.65;99950.25;124130;1102;104367;-75
2024/04/03 06:39:55;;;;;;;2.17;1.27;;;;;;;16.12;43.99;99955.58;124119;1099;104210;-75
2024/04/03 06:42:28;;;;;;;2.50;1.30;;;;;;;16.25;44.05;99942.40;124101;1099;102763;-73
2024/04/03 06:45:00;;;;;;;4.45;1.22;;;;;;;16.44;43.40;99948.63;123994;1099;104342;-74
2024/04/03 06:47:33;;;;;;;5.67;1.33;;;;;;;16.61;43.68;99938.99;124033;1099;104242;-74
2024/04/03 06:50:07;;;;;;;1.70;1.40;;;;;;;16.82;43.38;99946.08;124010;1102;104254;-73
2024/04/03 06:52:38;;;;;;;1.70;1.27;;;;;;;16.97;43.49;99944.34;124304;1099;104191;-72
2024/04/03 06:55:10;;;;;;;3.83;1.40;;;;;;;17.14;42.89;99945.27;124448;1099;104352;-73
2024/04/03 06:57:41;;;;;;;1.30;1.10;;;;;;;17.37;42.90;99949.66;124236;1099;104322;-72
2024/04/03 07:00:16;;;;;;;6.25;1.50;;;;;;;17.55;42.36;99954.94;124494;1099;104251;-72
2024/04/03 07:02:48;;;;;;;4.43;1.07;;;;;;;17.75;42.57;99954.91;124626;1098;104262;-75
2024/04/03 07:05:20;;;;;;;4.03;1.40;;;;;;;17.93;42.28;99953.98;124413;1099;104246;-71
2024/04/03 07:07:52;;;;;;;;;;;;;;;18.05;41.68;99957.52;124497;1099;104198;-72
2024/04/03 07:10:24;;;;;;;2.60;1.50;;;;;;;18.08;41.83;99949.53;124055;1099;105370;-73
2024/04/03 07:13:00;;;;;;;3.10;1.10;;;;;;;18.20;41.93;99952.14;124670;1099;104233;-76
2024/04/03 07:15:33;;;;;;;1.80;1.03;;;;;;;18.31;41.54;99963.59;124629;1099;102301;-72
2024/04/03 07:18:16;;;;;;;3.00;0.98;;;;;;;18.48;41.23;99960.86;124983;1099;102007;-72
2024/04/03 07:23:56;;;;;;;4.77;1.00;;;;;;;18.76;40.96;99955.39;124456;1099;104166;-72
2024/04/03 07:26:30;;;;;;;3.10;1.00;;;;;;;18.95;40.70;99960.61;124252;1099;104367;-74
2024/04/03 07:29:03;;;;;;;4.03;1.20;;;;;;;19.13;40.50;99959.57;124136;1099;104050;-71
2024/04/03 07:31:34;;;;;;;3.83;1.20;;;;;;;19.35;39.91;99963.83;124200;1099;104623;-72
2024/04/03 07:34:07;;;;;;;4.20;1.57;;;;;;;19.54;40.03;99961.88;124470;1099;104272;-72
2024/04/03 07:36:41;;;;;;;3.80;1.00;;;;;;;19.73;39.66;99951.05;124485;1099;102813;-72
2024/04/03 07:39:15;;;;;;;3.00;1.47;;;;;;;19.86;39.68;99955.36;124323;1099;104200;-73
2024/04/03 07:41:47;;;;;;;2.33;1.30;;;;;;;19.95;39.38;99959.70;124424;1099;104239;-73
2024/04/03 07:44:21;;;;;;;7.77;2.10;;;;;;;19.99;38.63;99965.87;124237;1099;103661;-71
2024/04/03 07:46:53;;;;;;;3.67;1.50;;;;;;;20.06;38.27;99965.78;124070;1099;104168;-73
2024/04/03 07:49:24;;;;;;;5.80;1.60;;;;;;;20.25;38.86;99960.23;124289;1099;104406;-73
2024/04/03 07:51:56;;;;;;;2.67;1.00;;;;;;;20.44;38.58;99959.11;124289;1099;104251;-72
2024/04/03 07:54:28;;;;;;;4.10;1.30;;;;;;;20.44;38.78;99964.44;124359;1099;103833;-73
2024/04/03 07:56:59;;;;;;;7.03;1.73;;;;;;;20.57;38.35;99956.24;124344;1099;104357;-73
2024/04/03 07:59:32;;;;;;;1.37;1.20;;;;;;;20.80;38.03;99959.52;124313;1099;104236;-73
2024/04/03 08:02:09;;;;;;;2.05;1.25;;;;;;;20.94;38.12;99958.41;124230;1099;104287;-76
2024/04/03 08:04:42;;;;;;;3.73;1.10;;;;;;;20.95;37.30;99966.38;124454;1099;104319;-71
2024/04/03 08:07:13;;;;;;;1.00;0.77;;;;;;;20.92;37.11;99961.09;124234;1099;104232;-73
2024/04/03 08:09:45;;;;;;;2.40;1.10;;;;;;;20.82;36.49;99965.70;124320;1099;104348;-72
2024/04/03 08:12:20;;;;;;;4.33;1.40;;;;;;;20.80;36.53;99962.19;124245;1099;104243;-74
2024/04/03 08:14:53;;;;;;;3.47;1.83;;;;;;;20.78;36.37;99963.97;124329;1099;102593;-72
2024/04/03 08:17:25;;;;;;;3.27;1.23;;;;;;;20.77;36.04;99972.89;124265;1099;103312;-75
2024/04/03 08:19:59;;;;;;;2.87;1.50;;;;;;;20.77;36.04;99970.23;124177;1099;104895;-73
2024/04/03 08:22:32;;;;;;;5.53;1.57;;;;;;;20.70;37.01;99973.88;123906;1098;104341;-71
2024/04/03 08:25:07;;;;;;;6.37;1.70;;;;;;;20.70;35.65;99973.88;124154;1099;104267;-73
2024/04/03 08:27:42;;;;;;;2.30;0.90;;;;;;;20.72;36.37;99973.85;124780;1099;104421;-73
2024/04/03 08:30:16;;;;;;;5.43;1.83;;;;;;;20.73;35.82;99980.95;123878;1099;104242;-74
2024/04/03 08:32:48;;;;;;;3.40;1.53;;;;;;;20.74;35.71;99983.60;124499;1099;104226;-73
2024/04/03 08:35:49;;;;;;;4.93;1.30;;;;;;;20.72;35.96;99973.85;124437;1099;104128;-73
2024/04/03 08:38:21;;;;;;;3.10;1.20;;;;;;;20.72;35.91;99982.72;124013;1099;104391;-72
2024/04/03 08:40:57;;;;;;;4.07;1.67;;;;;;;20.73;35.39;99979.16;124030;1099;104223;-71
2024/04/03 08:43:29;;;;;;;4.80;1.65;;;;;;;20.73;34.90;99978.29;124106;1099;104299;-72
2024/04/03 08:46:01;;;;;;;4.40;1.63;;;;;;;20.68;35.17;99978.36;124299;1099;104213;-74
2024/04/03 08:48:36;;;;;;;1.83;1.13;;;;;;;20.64;35.72;99977.50;124434;1099;104246;-76
2024/04/03 08:51:07;;;;;;;1.70;1.30;;;;;;;20.58;35.64;99982.88;124068;1099;103028;-74
2024/04/03 08:53:45;;;;;;;2.53;1.27;;;;;;;20.57;35.60;99980.23;124538;1099;104280;-73
2024/04/03 08:56:21;;;;;;;2.13;1.20;;;;;;;20.57;35.19;99973.14;124161;1099;104316;-76
2024/04/03 08:58:52;;;;;;;3.23;1.30;;;;;;;20.54;35.05;99974.98;124486;1099;104307;-74
2024/04/03 09:01:26;;;;;;;2.83;1.20;;;;;;;20.49;35.08;99977.70;124562;1099;104172;-75
2024/04/03 09:04:00;;;;;;;4.17;1.47;;;;;;;20.47;35.15;99985.72;124450;1099;104248;-76
2024/04/03 09:06:47;;;;;;;5.73;1.47;;;;;;;20.44;35.00;99985.75;124482;1099;104332;-75
2024/04/03 09:09:23;;;;;;;5.43;1.53;;;;;;;20.41;35.09;99990.22;126482;1099;102723;-73
2024/04/03 09:12:08;;;;;;;6.47;1.57;;;;;;;20.44;35.04;99980.42;124479;1099;104211;-76
2024/04/03 09:14:41;;;;;;;3.07;1.37;;;;;;;20.47;34.03;99993.71;124384;1099;104297;-76
2024/04/03 09:17:12;;;;;;;;;;;;;;;20.48;33.61;99987.45;124579;1098;104153;-73
2024/04/03 09:19:51;;;;;;;1.80;1.27;;;;;;;20.50;33.64;99986.56;124165;1099;104213;-74
2024/04/03 09:22:23;;;;;;;5.03;1.73;;;;;;;20.50;34.43;99986.56;124609;1099;104273;-76
2024/04/03 09:24:55;;;;;;;1.53;1.00;;;;;;;20.49;33.57;99988.36;124187;1099;104223;-73
2024/04/03 09:27:26;;;;;;;2.67;1.03;;;;;;;20.46;34.68;99981.28;124759;1099;104166;-74
2024/04/03 09:29:58;;;;;;;3.40;1.37;;;;;;;20.41;33.93;99988.45;124622;1099;104166;-74
2024/04/03 09:32:35;;;;;;;1.37;1.10;;;;;;;20.39;34.40;99998.23;124380;1100;104195;-75
2024/04/03 09:35:08;;;;;;;4.47;1.30;;;;;;;20.31;34.15;100009.91;124852;1099;104274;-74
2024/04/03 09:37:41;;;;;;;5.30;1.60;;;;;;;20.32;33.16;100004.56;126461;1099;102704;-72
2024/04/03 09:40:13;;;;;;;1.67;1.20;;;;;;;20.38;33.33;100009.81;126693;1099;101458;-73
2024/04/03 09:42:49;;;;;;;4.40;1.60;;;;;;;20.38;34.05;100000.91;126797;1098;102588;-72
2024/04/03 09:45:24;;;;;;;3.10;1.40;;;;;;;20.39;33.73;100008.89;124921;1099;104251;-73
2024/04/03 09:48:01;;;;;;;3.03;1.40;;;;;;;20.39;33.75;100016.02;124574;1099;102789;-73
2024/04/03 09:50:42;;;;;;;5.40;1.70;;;;;;;20.31;33.12;100013.44;124473;1099;104201;-74
2024/04/03 09:53:15;;;;;;;3.03;1.00;;;;;;;20.24;32.92;100017.06;124576;1099;104201;-74
2024/04/03 09:55:49;;;;;;;2.13;1.40;;;;;;;20.08;32.81;100014.58;124196;1099;104191;-75
2024/04/03 09:58:27;;;;;;;5.73;1.27;;;;;;;19.97;33.67;100008.48;123988;1099;104194;-76
2024/04/03 10:01:00;;;;;;;4.50;1.50;;;;;;;19.88;33.33;100014.81;124427;1099;104277;-72
2024/04/03 10:03:36;;;;;;;5.37;1.67;;;;;;;19.86;33.09;100003.28;124578;1099;104351;-72
2024/04/03 10:06:16;;;;;;;2.02;1.40;;;;;;;19.92;33.14;100005.00;124623;1099;102711;-72
2024/04/03 10:08:49;;;;;;;1.47;1.20;;;;;;;19.87;32.33;99993.53;124770;1099;104415;-73
2024/04/03 10:11:27;;;;;;;4.10;1.43;;;;;;;19.78;33.09;100004.27;124665;1099;104477;-74
2024/04/03 10:13:58;;;;;;;1.95;1.20;;;;;;;19.83;33.41;100005.09;124661;1099;104265;-73
2024/04/03 10:16:34;;;;;;;3.20;1.50;;;;;;;19.88;32.17;100011.25;124521;1099;104743;-73
2024/04/03 10:19:06;;;;;;;2.13;1.37;;;;;;;19.78;32.75;99998.95;124618;1099;102046;-76
2024/04/03 10:21:39;;;;;;;2.70;1.20;;;;;;;19.84;32.82;100001.55;124535;1099;104348;-72
2024/04/03 10:24:13;;;;;;;4.63;1.60;;;;;;;19.90;33.20;100010.34;124037;1099;104272;-72
2024/04/03 10:26:48;;;;;;;4.17;1.20;;;;;;;19.97;32.20;99999.63;124509;1099;104180;-74
2024/04/03 10:29:22;;;;;;;4.20;1.60;;;;;;;20.04;32.81;100009.30;124676;1099;102119;-72
2024/04/03 10:31:55;;;;;;;2.47;1.50;;;;;;;20.07;32.37;100004.84;124861;1099;104251;-74
2024/04/03 10:34:35;;;;;;;6.13;1.90;;;;;;;20.09;33.38;100000.37;124521;1099;104166;-73
2024/04/03 10:37:11;;;;;;;2.33;1.73;;;;;;;20.15;32.44;99999.42;124509;1099;104245;-72
2024/04/03 10:39:42;;;;;;;2.60;1.70;;;;;;;20.21;32.70;100003.78;124857;1099;104335;-72
2024/04/03 10:42:13;;;;;;;7.53;2.00;;;;;;;20.22;32.62;99998.44;124635;1099;104616;-73
2024/04/03 10:44:46;;;;;;;12.80;3.40;;;;;;;20.17;32.52;99997.62;124803;1099;104255;-72
2024/04/03 10:47:21;;;;;;;5.10;1.60;;;;;;;20.18;32.84;99994.06;124872;1098;104870;-75
2024/04/03 10:50:14;;;;;;;6.10;1.90;;;;;;;20.34;33.25;100007.20;124683;1098;104507;-74
2024/04/03 10:52:46;;;;;;;2.30;1.60;;;;;;;20.41;33.16;99985.80;124578;1099;103345;-74
2024/04/03 10:55:28;;;;;;;9.20;2.20;;;;;;;20.43;32.28;99988.44;124884;1099;104302;-73
2024/04/03 10:58:15;;;;;;;1.70;1.50;;;;;;;20.36;32.93;99984.95;124852;1099;103475;-73
2024/04/03 11:00:47;;;;;;;5.60;2.10;;;;;;;20.41;33.01;99987.55;124441;1099;104264;-74
2024/04/03 11:03:25;;;;;;;4.63;2.23;;;;;;;20.42;33.00;99987.53;124284;1099;104333;-74
2024/04/03 11:05:57;;;;;;;4.45;2.10;;;;;;;20.28;32.34;99994.83;124219;1099;104181;-75
2024/04/03 11:08:29;;;;;;;3.67;1.47;;;;;;;20.06;32.22;99979.09;124108;1099;110043;-74
2024/04/03 11:11:08;;;;;;;6.57;2.10;;;;;;;20.06;31.80;99975.56;124064;1099;104610;-73
2024/04/03 11:13:47;;;;;;;3.53;1.83;;;;;;;20.09;31.71;99973.73;124904;1098;104199;-76
2024/04/03 11:16:22;;;;;;;3.33;1.43;;;;;;;20.09;31.88;99968.41;124452;1099;104243;-75
2024/04/03 11:18:59;;;;;;;7.40;1.80;;;;;;;20.17;31.53;99980.77;123897;1099;104169;-73
2024/04/03 11:21:32;;;;;;;3.53;1.57;;;;;;;20.30;31.79;99955.72;123932;1099;104437;-72
2024/04/03 11:24:09;;;;;;;2.30;1.10;;;;;;;20.27;31.92;99959.33;124585;1099;104220;-75
2024/04/03 11:26:47;;;;;;;1.42;1.02;;;;;;;20.25;31.28;99950.45;124314;1099;104194;-73
2024/04/03 11:29:37;;;;;;;2.03;1.53;;;;;;;20.25;31.88;99941.59;123989;1099;107130;-73
2024/04/03 11:32:17;;;;;;;4.53;1.60;;;;;;;20.27;31.17;99946.00;124306;1099;104354;-74
2024/04/03 11:34:49;;;;;;;1.70;1.17;;;;;;;20.31;30.55;99946.84;124466;1099;104236;-73
2024/04/03 11:37:24;;;;;;;4.50;1.40;;;;;;;20.26;30.98;99944.23;124182;1099;104318;-73
2024/04/03 11:39:58;;;;;;;1.40;1.30;;;;;;;20.32;30.70;99937.05;124651;1099;104235;-73
2024/04/03 11:42:30;;;;;;;4.30;1.30;;;;;;;20.32;29.78;99929.95;124285;1099;104162;-73
2024/04/03 11:45:01;;;;;;;2.73;1.30;;;;;;;20.35;30.86;99937.91;124495;1098;104239;-74
2024/04/03 11:47:33;;;;;;;4.20;2.00;;;;;;;20.43;30.49;99921.83;124312;1099;104178;-73
2024/04/03 11:50:09;;;;;;;1.77;1.37;;;;;;;20.58;29.95;99920.70;124345;1099;104191;-74
2024/04/03 11:52:48;;;;;;;2.43;1.20;;;;;;;20.55;30.17;99915.42;124422;1099;104347;-72